Time;durP1;ratioP1;P1;durP2;ratioP2;P2;SDS_P1;SDS_P2;PMS_P1;PMS_P2;Temp;Humidity;BMP_temperature;BMP_pressure;BME280_temperature;BME280_humidity;BME280_pressure;Samples;Min_cycle;Max_cycle;Signal;HPM_P1;HPM_P2
2022/12/05 00:03:33;;;;;;;65.40;21.63;;;;;;;4.85;55.33;99812.31;10352211;28;20255;-37
2022/12/05 00:08:35;;;;;;;77.73;21.13;;;;;;;4.40;55.84;99795.28;10354316;28;20252;-36
2022/12/05 00:13:39;;;;;;;87.30;21.20;;;;;;;3.42;58.18;99797.16;10350995;28;20747;-37
2022/12/05 00:18:41;;;;;;;67.67;22.27;;;;;;;4.21;56.87;99813.88;10354930;28;20689;-37
2022/12/05 00:23:43;;;;;;;51.73;20.07;;;;;;;5.44;54.68;99876.53;10351460;28;20242;-37
2022/12/05 00:28:46;;;;;;;110.27;22.63;;;;;;;4.89;55.06;99832.25;10335199;28;20377;-34
2022/12/05 00:33:48;;;;;;;65.97;20.23;;;;;;;4.93;55.45;99865.47;10347854;28;20248;-35
2022/12/05 00:38:51;;;;;;;83.47;21.90;;;;;;;4.53;55.59;99841.88;10355209;28;20621;-33
2022/12/05 00:43:54;;;;;;;58.50;21.47;;;;;;;3.96;57.56;99850.53;10348887;28;20238;-35
2022/12/05 00:48:57;;;;;;;69.07;19.90;;;;;;;5.11;55.28;99884.06;10354395;28;20464;-34
2022/12/05 00:54:01;;;;;;;96.23;20.77;;;;;;;4.88;55.48;99867.72;10348900;28;20257;-34
2022/12/05 00:59:04;;;;;;;82.77;21.30;;;;;;;3.71;57.38;99820.16;10353980;28;20248;-34
2022/12/05 01:04:11;;;;;;;90.27;21.17;;;;;;;4.29;57.19;99837.84;10331097;28;20260;-34
2022/12/05 01:09:15;;;;;;;67.53;23.20;;;;;;;4.39;57.50;99851.94;10369169;28;20267;-35
2022/12/05 01:14:19;;;;;;;117.80;25.57;;;;;;;3.93;57.46;99818.22;10348122;28;20475;-34
2022/12/05 01:19:24;;;;;;;83.83;23.17;;;;;;;4.36;55.41;99830.19;10354874;28;20608;-34
2022/12/05 01:24:28;;;;;;;82.27;22.97;;;;;;;4.45;56.09;99833.78;10349011;28;20237;-34
2022/12/05 01:29:30;;;;;;;70.87;22.63;;;;;;;4.09;57.43;99852.09;10355064;28;20237;-34
2022/12/05 01:34:31;;;;;;;109.10;23.53;;;;;;;4.46;56.44;99860.16;10330021;28;20249;-35
2022/12/05 01:39:33;;;;;;;88.03;23.83;;;;;;;4.66;56.07;99871.56;10352810;28;20321;-34
2022/12/05 01:44:35;;;;;;;67.20;23.70;;;;;;;5.24;55.41;99898.84;10347237;28;20233;-34
2022/12/05 01:49:41;;;;;;;77.70;22.73;;;;;;;4.62;55.94;99861.38;10353926;28;20236;-34
2022/12/05 01:54:46;;;;;;;70.37;23.03;;;;;;;4.73;55.80;99847.97;10346801;28;20237;-34
2022/12/05 01:59:52;;;;;;;76.60;21.17;;;;;;;4.84;55.41;99871.63;10352054;28;20241;-34
2022/12/05 02:05:10;;;;;;;49.90;19.17;;;;;;;4.58;56.29;99860.81;10347031;28;20319;-34
2022/12/05 02:10:12;;;;;;;59.23;18.40;;;;;;;4.06;57.78;99873.56;10348097;28;20248;-34
2022/12/05 02:20:58;;;;;;;68.03;18.27;;;;;;;3.77;60.10;99880.50;10315906;28;20232;-35
2022/12/05 02:26:25;;;;;;;53.97;16.73;;;;;;;2.26;61.59;99880.22;10317177;28;20232;-35
2022/12/05 02:31:39;;;;;;;43.10;16.53;;;;;;;3.45;60.57;99876.25;10319340;28;20244;-35
2022/12/05 02:36:51;;;;;;;31.33;17.13;;;;;;;2.87;61.80;99870.72;10317672;28;20244;-38
2022/12/05 02:42:09;;;;;;;38.33;18.00;;;;;;;2.21;62.95;99885.06;10315217;28;20233;-35
2022/12/05 02:47:16;;;;;;;35.10;16.67;;;;;;;2.96;61.31;99850.66;10312725;28;20618;-36
2022/12/05 02:52:18;;;;;;;40.37;18.30;;;;;;;4.16;58.53;99848.72;10317327;28;20512;-34
2022/12/05 02:57:23;;;;;;;31.03;17.73;;;;;;;2.89;60.30;99863.53;10318157;28;20233;-33
2022/12/05 03:02:30;;;;;;;31.60;16.40;;;;;;;2.09;62.70;99873.72;10316915;28;20238;-36
2022/12/05 03:07:32;;;;;;;28.60;16.67;;;;;;;3.12;60.97;99843.03;10321560;28;20259;-34
2022/12/05 03:12:41;;;;;;;31.60;16.63;;;;;;;4.17;58.01;99831.88;10322264;28;20405;-34
2022/12/05 03:17:51;;;;;;;31.60;15.80;;;;;;;5.09;55.29;99870.13;10324039;28;20260;-37
2022/12/05 03:22:57;;;;;;;27.57;16.30;;;;;;;4.48;56.93;99865.31;10323132;28;20359;-35
2022/12/05 03:28:09;;;;;;;26.37;15.10;;;;;;;4.86;55.74;99871.47;10317183;28;20583;-34
2022/12/05 03:33:18;;;;;;;28.53;15.93;;;;;;;5.23;55.07;99892.69;10318666;28;20835;-37
2022/12/05 03:38:29;;;;;;;27.47;17.30;;;;;;;4.15;56.37;99864.75;10323322;28;20245;-33
2022/12/05 03:43:43;;;;;;;29.80;15.40;;;;;;;4.62;55.92;99887.88;10321712;28;20243;-36
2022/12/05 03:49:03;;;;;;;26.33;16.13;;;;;;;4.79;54.95;99896.91;10322490;28;20718;-35
2022/12/05 03:54:34;;;;;;;31.87;16.97;;;;;;;5.05;55.49;99910.38;10321877;28;20255;-34
2022/12/05 03:59:53;;;;;;;30.17;15.53;;;;;;;5.56;54.16;99938.22;10322644;28;20241;-35
2022/12/05 04:05:05;;;;;;;26.87;15.77;;;;;;;4.25;55.60;99862.94;10320698;28;20332;-35
2022/12/05 04:10:21;;;;;;;31.23;17.60;;;;;;;3.98;57.68;99904.19;10320809;28;20268;-36
2022/12/05 04:17:02;;;;;;;29.47;17.00;;;;;;;5.65;54.45;99939.16;10320327;28;20280;-36
2022/12/05 04:26:30;;;;;;;37.53;23.03;;;;;;;3.88;56.46;99906.00;10320790;28;20237;-36
2022/12/05 04:31:40;;;;;;;29.47;18.90;;;;;;;3.37;59.00;99944.88;10319341;28;20241;-36
2022/12/05 04:36:52;;;;;;;22.30;14.97;;;;;;;3.58;59.34;99949.25;10320963;28;20433;-33
2022/12/05 04:42:05;;;;;;;25.03;15.43;;;;;;;3.65;59.09;99926.59;10295872;28;20245;-36
2022/12/05 04:47:09;;;;;;;28.33;17.37;;;;;;;5.33;54.92;99930.66;10313696;28;20244;-37
2022/12/05 04:52:38;;;;;;;24.57;14.33;;;;;;;3.10;60.06;99954.22;10326374;28;20240;-35
2022/12/05 04:58:06;;;;;;;22.63;14.43;;;;;;;3.77;57.75;99925.50;10320141;28;20237;-36
2022/12/05 05:03:53;;;;;;;23.07;13.67;;;;;;;3.16;60.56;99942.28;10317371;28;20246;-35
2022/12/05 05:09:18;;;;;;;25.10;14.77;;;;;;;3.40;59.64;99946.44;10316078;28;20241;-35
2022/12/05 05:14:44;;;;;;;24.20;14.23;;;;;;;5.40;54.92;99938.84;10319573;28;20333;-36
2022/12/05 05:20:23;;;;;;;25.40;16.83;;;;;;;4.19;56.05;99908.53;10317347;28;20334;-36
2022/12/05 05:25:53;;;;;;;24.47;16.20;;;;;;;4.43;56.42;99939.94;10318124;28;20241;-35
2022/12/05 05:31:19;;;;;;;26.23;17.17;;;;;;;4.48;56.63;99940.34;10318658;28;20238;-35
2022/12/05 05:36:51;;;;;;;28.23;16.90;;;;;;;4.88;55.33;99960.53;10317719;28;20711;-33
2022/12/05 05:42:16;;;;;;;26.50;16.87;;;;;;;5.06;55.19;99994.25;10312336;28;20324;-35
2022/12/05 05:47:43;;;;;;;25.10;16.40;;;;;;;4.92;56.31;99982.28;10316789;28;20253;-33
2022/12/05 05:53:08;;;;;;;24.57;14.93;;;;;;;6.02;53.60;100034.69;10311347;28;20221;-35
2022/12/05 05:58:35;;;;;;;25.70;16.17;;;;;;;5.94;53.44;100020.50;10316352;28;20241;-33
2022/12/05 06:04:01;;;;;;;23.00;15.10;;;;;;;6.12;52.90;100042.63;10315817;28;20230;-34
2022/12/05 06:09:26;;;;;;;23.60;14.67;;;;;;;6.77;51.42;100087.69;10316195;28;20714;-34
2022/12/05 06:14:53;;;;;;;23.33;14.40;;;;;;;6.65;51.85;100096.88;10315142;28;20234;-34
2022/12/05 06:20:18;;;;;;;23.33;15.20;;;;;;;6.10;52.59;100065.84;10318339;28;20241;-34
2022/12/05 06:25:48;;;;;;;23.07;15.17;;;;;;;6.15;52.31;100076.88;10317541;28;20757;-35
2022/12/05 06:31:22;;;;;;;21.90;14.50;;;;;;;3.66;57.66;100034.13;10317207;28;20258;-34
2022/12/05 06:36:47;;;;;;;21.07;13.67;;;;;;;4.93;55.39;100021.94;10315768;28;20234;-34
2022/12/05 06:43:03;;;;;;;23.17;15.37;;;;;;;2.90;58.55;100019.31;10319279;28;20458;-34
2022/12/05 06:49:19;;;;;;;22.13;13.80;;;;;;;3.51;60.45;100062.72;10321452;28;20636;-35
2022/12/05 06:55:35;;;;;;;20.17;13.60;;;;;;;4.80;56.47;100025.84;10324385;28;20226;-34
2022/12/05 07:01:52;;;;;;;22.00;14.93;;;;;;;3.19;60.15;100049.59;10322715;28;20344;-34
2022/12/05 07:08:07;;;;;;;23.13;13.93;;;;;;;2.80;60.21;100042.22;10317774;28;20225;-33
2022/12/05 07:14:23;;;;;;;22.27;15.00;;;;;;;3.81;59.24;100016.88;10324419;28;20327;-36
2022/12/05 07:20:39;;;;;;;20.87;14.47;;;;;;;4.79;56.47;100005.63;10324270;28;20237;-36
2022/12/05 07:26:54;;;;;;;29.77;18.20;;;;;;;5.52;54.31;100037.72;10324674;28;20237;-34
2022/12/05 07:33:10;;;;;;;22.87;14.43;;;;;;;4.83;56.22;100042.31;10321004;28;20256;-34
2022/12/05 07:39:26;;;;;;;24.57;15.73;;;;;;;4.67;56.48;100039.38;10319238;28;20245;-36
2022/12/05 07:45:41;;;;;;;24.53;14.93;;;;;;;2.88;60.14;100074.13;10321559;28;20260;-36
2022/12/05 07:51:56;;;;;;;23.00;14.77;;;;;;;1.73;63.92;100055.19;10323158;28;20230;-35
2022/12/05 07:58:11;;;;;;;23.57;15.80;;;;;;;2.30;63.21;100082.38;10322769;28;20238;-34
2022/12/05 08:04:27;;;;;;;23.13;16.47;;;;;;;2.07;64.24;100068.38;10322871;28;20298;-33
2022/12/05 08:10:43;;;;;;;22.97;14.23;;;;;;;2.83;62.04;100033.19;10319775;28;20626;-35
2022/12/05 08:16:58;;;;;;;23.10;14.00;;;;;;;2.43;62.40;100033.84;10320880;28;20253;-34
2022/12/05 14:45:59;;;;;;;7.93;6.07;;;;;;;6.31;53.66;100211.78;10285499;28;20234;-36
2022/12/05 14:51:29;;;;;;;8.10;6.20;;;;;;;5.61;54.92;100156.34;10277028;28;20250;-36
2022/12/05 14:56:42;;;;;;;4.30;3.87;;;;;;;3.20;58.89;100128.81;10284794;28;20704;-36
2022/12/05 19:12:18;;;;;;;11.77;9.20;;;;;;;2.72;60.30;100243.72;10545091;28;20230;-73
2022/12/05 19:17:21;;;;;;;9.87;8.20;;;;;;;4.26;56.80;100179.88;10563006;28;20571;-72
2022/12/05 19:22:25;;;;;;;11.20;8.60;;;;;;;2.90;60.12;100228.16;10554452;28;20232;-76
2022/12/05 19:27:27;;;;;;;10.07;7.13;;;;;;;2.44;61.09;100215.97;10543611;28;20230;-76
2022/12/05 19:32:29;;;;;;;7.63;5.93;;;;;;;2.01;62.24;100240.44;10558020;28;20226;-75
2022/12/05 19:37:35;;;;;;;6.17;5.57;;;;;;;3.10;60.43;100212.53;10546058;28;20246;-78
2022/12/05 19:42:37;;;;;;;6.63;5.57;;;;;;;2.41;61.07;100208.28;10529938;28;20283;-76
2022/12/05 19:47:39;;;;;;;7.27;6.03;;;;;;;2.40;62.27;100211.91;10552171;28;20323;-73
2022/12/05 19:52:40;;;;;;;8.03;5.83;;;;;;;3.22;59.65;100171.84;10561367;28;20226;-71
2022/12/05 19:57:42;;;;;;;7.60;6.00;;;;;;;3.59;58.78;100162.66;10547055;28;20249;-78
2022/12/05 20:02:44;;;;;;;8.57;6.70;;;;;;;4.12;57.04;100165.19;10553913;28;20719;-77
2022/12/05 20:07:46;;;;;;;6.73;5.70;;;;;;;2.13;60.68;100202.53;10559664;28;21078;-75
2022/12/05 20:12:48;;;;;;;7.47;5.53;;;;;;;2.64;60.13;100206.47;10559368;28;20222;-75
2022/12/05 20:17:50;;;;;;;7.03;5.70;;;;;;;4.26;57.61;100174.56;10546767;28;20263;-76
2022/12/05 20:22:54;;;;;;;6.47;5.30;;;;;;;3.31;58.13;100172.91;10549274;28;20227;-69
2022/12/05 20:27:55;;;;;;;8.30;6.17;;;;;;;3.14;59.04;100195.44;10550072;28;20242;-77
2022/12/05 20:32:57;;;;;;;6.33;5.37;;;;;;;3.60;59.05;100201.41;10539837;28;20921;-78
2022/12/05 20:37:59;;;;;;;6.80;5.37;;;;;;;3.42;58.68;100187.88;10548055;28;20961;-78
2022/12/05 20:43:01;;;;;;;6.43;5.77;;;;;;;3.47;59.36;100193.63;10550916;28;20256;-75
2022/12/05 20:48:03;;;;;;;8.87;6.07;;;;;;;4.17;57.74;100172.69;10524574;22;20243;-36
2022/12/05 20:53:05;;;;;;;7.53;5.90;;;;;;;4.06;58.11;100186.88;10417277;28;20228;-36
2022/12/05 20:58:06;;;;;;;5.50;4.93;;;;;;;3.47;59.54;100220.09;10444185;28;20388;-36
2022/12/05 21:03:09;;;;;;;7.47;4.93;;;;;;;3.96;57.81;100172.75;10434919;28;20229;-35
2022/12/05 21:08:17;;;;;;;8.83;6.70;;;;;;;4.45;57.36;100191.53;10440223;28;20238;-35
2022/12/05 21:13:19;;;;;;;10.03;7.07;;;;;;;3.23;58.38;100172.72;10440936;28;20317;-34
2022/12/05 21:18:21;;;;;;;10.27;5.93;;;;;;;4.13;57.96;100195.16;10432144;28;20240;-35
2022/12/05 21:23:23;;;;;;;6.30;5.53;;;;;;;4.33;57.12;100191.63;10434846;28;20236;-35
2022/12/05 21:28:25;;;;;;;7.90;5.70;;;;;;;4.27;57.40;100186.84;10437463;28;20577;-35
2022/12/05 21:33:26;;;;;;;5.87;4.70;;;;;;;4.08;57.26;100181.47;10439322;28;20234;-35
2022/12/05 21:38:30;;;;;;;7.43;5.60;;;;;;;3.38;57.77;100179.38;10433293;28;20235;-35
2022/12/05 21:43:33;;;;;;;7.13;5.37;;;;;;;4.07;57.10;100200.97;10435291;28;20232;-35
2022/12/05 21:48:35;;;;;;;7.97;5.50;;;;;;;4.47;56.62;100187.78;10434085;28;20240;-35
2022/12/05 21:53:37;;;;;;;6.13;5.17;;;;;;;4.16;57.03;100190.41;10439064;28;20972;-35
2022/12/05 21:58:39;;;;;;;8.40;6.23;;;;;;;3.60;57.56;100188.16;10434974;28;20585;-35
2022/12/05 22:03:43;;;;;;;11.13;7.70;;;;;;;3.81;57.86;100207.50;10431797;28;20629;-35
2022/12/05 22:08:45;;;;;;;9.53;6.33;;;;;;;3.42;59.04;100220.47;10437614;28;20231;-35
2022/12/05 22:13:48;;;;;;;8.00;6.33;;;;;;;4.30;56.84;100207.75;10432576;28;20238;-33
2022/12/05 22:18:49;;;;;;;7.83;5.77;;;;;;;4.34;56.70;100203.06;10436992;28;20287;-35
2022/12/05 22:23:51;;;;;;;7.33;5.43;;;;;;;4.01;57.34;100202.34;10434385;28;20236;-35
2022/12/05 22:28:54;;;;;;;7.37;6.37;;;;;;;3.47;57.55;100193.63;10431346;28;20611;-35
2022/12/05 22:33:56;;;;;;;8.13;6.57;;;;;;;3.72;57.78;100199.53;10433858;28;20696;-34
2022/12/05 22:38:58;;;;;;;6.97;6.13;;;;;;;3.89;57.61;100195.44;10427965;28;20242;-35
2022/12/05 22:43:59;;;;;;;8.27;6.00;;;;;;;3.72;57.88;100213.59;10435324;28;20236;-35
2022/12/05 22:49:03;;;;;;;7.90;6.00;;;;;;;3.82;57.20;100201.25;10420614;28;20233;-35
2022/12/05 22:54:04;;;;;;;6.43;5.70;;;;;;;2.84;60.19;100231.31;10432344;28;20792;-35
2022/12/05 22:59:09;;;;;;;5.77;5.13;;;;;;;3.82;57.55;100189.84;10423544;28;20314;-35
2022/12/05 23:04:15;;;;;;;6.07;5.47;;;;;;;3.59;58.54;100203.19;10429892;28;20324;-35
2022/12/05 23:09:17;;;;;;;6.97;6.10;;;;;;;3.90;57.78;100189.16;10428360;28;20243;-35
2022/12/05 23:14:19;;;;;;;6.80;5.77;;;;;;;4.48;56.92;100184.16;10431952;28;20248;-35
2022/12/05 23:19:20;;;;;;;6.90;6.20;;;;;;;3.73;57.76;100149.09;10439917;28;20238;-35
2022/12/05 23:24:22;;;;;;;6.20;5.60;;;;;;;4.19;57.29;100170.78;10434344;28;20240;-35
2022/12/05 23:29:24;;;;;;;7.70;6.47;;;;;;;4.13;57.63;100166.84;10438850;28;20772;-34
2022/12/05 23:34:26;;;;;;;8.10;5.93;;;;;;;3.91;57.44;100173.16;10443849;28;20709;-35
2022/12/05 23:39:27;;;;;;;6.93;5.57;;;;;;;4.77;55.93;100186.03;10435049;28;20258;-34
2022/12/05 23:44:29;;;;;;;7.10;5.70;;;;;;;4.16;56.93;100165.75;10440759;28;20661;-35
2022/12/05 23:49:31;;;;;;;7.37;5.93;;;;;;;3.46;58.59;100169.00;10443117;28;20223;-35
2022/12/05 23:54:34;;;;;;;7.33;5.97;;;;;;;3.68;58.93;100198.91;10434881;28;20231;-35
2022/12/05 23:59:35;;;;;;;5.97;5.27;;;;;;;4.40;56.47;100165.44;10437036;28;20238;-34
